Time,TemperatureF,DewpointF,PressureIn,WindDirection,WindDirectionDegrees,WindSpeedMPH,WindSpeedGustMPH,Humidity,HourlyPrecipIn,Conditions,Clouds,dailyrainin,SoftwareType,DateUTC
2013-05-19 00:12:00,67.7,62.0,29.98,East,86,2.0,3.0,81,0.00,,,0.00,weatherlink.com 1.10,2013-05-19 04:12:00,
2013-05-19 00:27:00,67.0,61.0,29.98,East,86,2.0,3.0,81,0.00,,,0.00,weatherlink.com 1.10,2013-05-19 04:27:00,
2013-05-19 00:42:00,66.3,60.0,29.98,East,86,2.0,5.0,81,0.00,,,0.00,weatherlink.com 1.10,2013-05-19 04:42:00,
2013-05-19 00:58:00,65.8,60.0,29.97,East,86,1.0,3.0,82,0.00,,,0.00,weatherlink.com 1.10,2013-05-19 04:58:00,
2013-05-19 01:13:00,65.3,59.0,29.97,East,90,3.0,6.0,80,0.00,,,0.00,weatherlink.com 1.10,2013-05-19 05:13:00,
2013-05-19 01:28:00,65.5,59.0,29.96,East,84,3.0,6.0,79,0.00,,,0.00,weatherlink.com 1.10,2013-05-19 05:28:00,
2013-05-19 01:44:00,65.5,59.0,29.96,ENE,63,3.0,5.0,79,0.00,,,0.00,weatherlink.com 1.10,2013-05-19 05:44:00,
2013-05-19 01:59:00,65.6,58.0,29.95,East,86,3.0,6.0,77,0.00,,,0.00,weatherlink.com 1.10,2013-05-19 05:59:00,
2013-05-19 02:14:00,65.6,58.0,29.94,East,88,2.0,5.0,76,0.00,,,0.00,weatherlink.com 1.10,2013-05-19 06:14:00,
2013-05-19 02:29:00,65.4,57.0,29.94,East,91,3.0,5.0,75,0.00,,,0.00,weatherlink.com 1.10,2013-05-19 06:29:00,
2013-05-19 02:46:00,65.0,56.0,29.94,East,98,0.0,2.0,73,0.00,,,0.00,weatherlink.com 1.10,2013-05-19 06:46:00,
2013-05-19 03:00:00,64.9,57.0,29.94,East,98,0.0,3.0,75,0.00,,,0.00,weatherlink.com 1.10,2013-05-19 07:00:00,
2013-05-19 03:15:00,64.0,57.0,29.94,East,98,2.0,3.0,78,0.00,,,0.00,weatherlink.com 1.10,2013-05-19 07:15:00,
2013-05-19 03:31:00,63.0,56.0,29.94,East,95,2.0,5.0,77,0.00,,,0.00,weatherlink.com 1.10,2013-05-19 07:31:00,
2013-05-19 03:47:00,62.5,56.0,29.95,East,95,0.0,2.0,79,0.00,,,0.00,weatherlink.com 1.10,2013-05-19 07:47:00,
2013-05-19 04:01:00,62.2,56.0,29.96,East,95,0.0,0.0,80,0.00,,,0.00,weatherlink.com 1.10,2013-05-19 08:01:00,
2013-05-19 04:16:00,61.3,55.0,29.96,East,95,0.0,0.0,81,0.00,,,0.00,weatherlink.com 1.10,2013-05-19 08:16:00,
2013-05-19 04:32:00,60.4,55.0,29.95,NE,44,1.0,6.0,82,0.00,,,0.00,weatherlink.com 1.10,2013-05-19 08:32:00,
2013-05-19 04:47:00,60.3,54.0,29.96,NE,46,2.0,5.0,79,0.00,,,0.00,weatherlink.com 1.10,2013-05-19 08:47:00,
2013-05-19 05:02:00,60.2,54.0,29.96,East,84,3.0,5.0,79,0.00,,,0.00,weatherlink.com 1.10,2013-05-19 09:02:00,
2013-05-19 05:18:00,60.0,53.0,29.96,East,95,2.0,9.0,77,0.00,,,0.00,weatherlink.com 1.10,2013-05-19 09:18:00,
2013-05-19 05:33:00,59.9,53.0,29.96,East,88,0.0,5.0,78,0.00,,,0.00,weatherlink.com 1.10,2013-05-19 09:33:00,
2013-05-19 05:48:00,59.6,53.0,29.96,East,90,2.0,5.0,80,0.00,,,0.00,weatherlink.com 1.10,2013-05-19 09:48:00,
2013-05-19 06:03:00,58.9,53.0,29.96,ESE,103,2.0,5.0,80,0.00,,,0.00,weatherlink.com 1.10,2013-05-19 10:03:00,
2013-05-19 06:18:00,58.9,53.0,29.95,ESE,111,2.0,4.0,80,0.00,,,0.00,weatherlink.com 1.10,2013-05-19 10:18:00,
2013-05-19 06:34:00,58.9,53.0,29.96,ESE,105,1.0,3.0,81,0.00,,,0.00,weatherlink.com 1.10,2013-05-19 10:34:00,
2013-05-19 06:49:00,58.6,54.0,29.96,SE,125,4.0,6.0,83,0.00,,,0.00,weatherlink.com 1.10,2013-05-19 10:49:00,
2013-05-19 07:04:00,58.9,54.0,29.96,SE,126,0.0,4.0,83,0.00,,,0.00,weatherlink.com 1.10,2013-05-19 11:04:00,
2013-05-19 07:20:00,59.5,54.0,29.96,SE,126,1.0,3.0,83,0.00,,,0.00,weatherlink.com 1.10,2013-05-19 11:20:00,
2013-05-19 07:36:00,60.6,55.0,29.97,SE,126,0.0,2.0,82,0.00,,,0.00,weatherlink.com 1.10,2013-05-19 11:36:00,
2013-05-19 07:50:00,61.7,56.0,29.96,SE,126,2.0,3.0,81,0.00,,,0.00,weatherlink.com 1.10,2013-05-19 11:50:00,
2013-05-19 08:05:00,62.7,57.0,29.96,SE,126,0.0,4.0,82,0.00,,,0.00,weatherlink.com 1.10,2013-05-19 12:05:00,
2013-05-19 08:22:00,64.5,59.0,29.97,SE,124,0.0,2.0,81,0.00,,,0.00,weatherlink.com 1.10,2013-05-19 12:22:00,
2013-05-19 08:37:00,66.1,60.0,29.97,SE,124,0.0,0.0,80,0.00,,,0.00,weatherlink.com 1.10,2013-05-19 12:37:00,
2013-05-19 08:52:00,67.5,61.0,29.97,SE,131,1.0,4.0,80,0.00,,,0.00,weatherlink.com 1.10,2013-05-19 12:52:00,
2013-05-19 09:07:00,68.5,63.0,29.98,ESE,122,1.0,3.0,81,0.00,,,0.00,weatherlink.com 1.10,2013-05-19 13:07:00,
2013-05-19 09:22:00,70.3,64.0,29.98,ESE,122,0.0,3.0,81,0.00,,,0.00,weatherlink.com 1.10,2013-05-19 13:22:00,
2013-05-19 09:37:00,70.9,65.0,29.98,SW,236,2.0,6.0,82,0.00,,,0.00,weatherlink.com 1.10,2013-05-19 13:37:00,
2013-05-19 09:52:00,70.9,66.0,29.98,SSW,209,3.0,5.0,83,0.00,,,0.00,weatherlink.com 1.10,2013-05-19 13:52:00,
2013-05-19 10:07:00,71.8,66.0,29.98,WSW,237,3.0,4.0,81,0.00,,,0.00,weatherlink.com 1.10,2013-05-19 14:07:00,
2013-05-19 10:24:00,72.9,67.0,29.97,WSW,238,0.0,4.0,81,0.00,,,0.00,weatherlink.com 1.10,2013-05-19 14:24:00,
2013-05-19 10:38:00,75.0,68.0,29.96,SE,138,3.0,4.0,80,0.00,,,0.00,weatherlink.com 1.10,2013-05-19 14:38:00,
2013-05-19 10:53:00,75.6,68.0,29.95,SE,132,4.0,6.0,77,0.00,,,0.00,weatherlink.com 1.10,2013-05-19 14:53:00,
2013-05-19 11:09:00,76.5,68.0,29.95,SSE,154,4.0,8.0,76,0.00,,,0.00,weatherlink.com 1.10,2013-05-19 15:09:00,
2013-05-19 11:24:00,76.6,68.0,29.95,ESE,123,5.0,11.0,75,0.00,,,0.00,weatherlink.com 1.10,2013-05-19 15:24:00,
2013-05-19 11:39:00,77.2,70.0,29.96,SSE,151,5.0,9.0,77,0.00,,,0.00,weatherlink.com 1.10,2013-05-19 15:39:00,
2013-05-19 11:54:00,77.8,70.0,29.96,East,96,7.0,10.0,78,0.00,,,0.00,weatherlink.com 1.10,2013-05-19 15:54:00,
2013-05-19 12:10:00,78.2,69.0,29.96,South,184,2.0,11.0,73,0.00,,,0.00,weatherlink.com 1.10,2013-05-19 16:10:00,
2013-05-19 12:25:00,78.0,68.0,29.96,South,171,3.0,7.0,71,0.00,,,0.00,weatherlink.com 1.10,2013-05-19 16:25:00,
2013-05-19 12:40:00,78.0,68.0,29.96,ESE,105,3.0,8.0,72,0.00,,,0.00,weatherlink.com 1.10,2013-05-19 16:40:00,
2013-05-19 12:55:00,78.1,68.0,29.96,SSW,193,4.0,7.0,71,0.00,,,0.00,weatherlink.com 1.10,2013-05-19 16:55:00,
2013-05-19 13:12:00,78.8,67.0,29.96,West,269,4.0,8.0,68,0.00,,,0.00,weatherlink.com 1.10,2013-05-19 17:12:00,
2013-05-19 13:27:00,78.0,67.0,29.95,South,190,3.0,7.0,70,0.00,,,0.00,weatherlink.com 1.10,2013-05-19 17:27:00,
2013-05-19 13:42:00,78.6,68.0,29.93,ENE,71,3.0,6.0,69,0.00,,,0.00,weatherlink.com 1.10,2013-05-19 17:42:00,
2013-05-19 13:57:00,80.1,71.0,29.93,SE,133,4.0,9.0,73,0.00,,,0.00,weatherlink.com 1.10,2013-05-19 17:57:00,
2013-05-19 14:12:00,80.4,69.0,29.92,SW,219,5.0,12.0,69,0.00,,,0.00,weatherlink.com 1.10,2013-05-19 18:12:00,
2013-05-19 14:27:00,80.2,69.0,29.91,SSE,161,4.0,10.0,68,0.00,,,0.00,weatherlink.com 1.10,2013-05-19 18:27:00,
2013-05-19 14:42:00,80.7,70.0,29.90,SE,138,6.0,11.0,69,0.00,,,0.00,weatherlink.com 1.10,2013-05-19 18:42:00,
2013-05-19 14:57:00,81.2,69.0,29.89,ESE,103,3.0,8.0,67,0.00,,,0.00,weatherlink.com 1.10,2013-05-19 18:57:00,
2013-05-19 15:13:00,81.8,68.0,29.88,ESE,119,1.0,9.0,63,0.00,,,0.00,weatherlink.com 1.10,2013-05-19 19:13:00,
2013-05-19 15:28:00,81.6,68.0,29.88,SE,130,6.0,10.0,64,0.00,,,0.00,weatherlink.com 1.10,2013-05-19 19:28:00,
2013-05-19 15:43:00,82.4,69.0,29.87,ESE,116,4.0,8.0,63,0.00,,,0.00,weatherlink.com 1.10,2013-05-19 19:43:00,
2013-05-19 15:59:00,82.2,69.0,29.86,SE,136,4.0,9.0,64,0.00,,,0.00,weatherlink.com 1.10,2013-05-19 19:59:00,
2013-05-19 16:15:00,82.9,70.0,29.87,SE,124,0.0,10.0,65,0.00,,,0.00,weatherlink.com 1.10,2013-05-19 20:15:00,
2013-05-19 16:29:00,82.5,68.0,29.87,SW,225,6.0,11.0,62,0.00,,,0.00,weatherlink.com 1.10,2013-05-19 20:29:00,
2013-05-19 16:44:00,82.9,68.0,29.87,South,173,5.0,7.0,61,0.00,,,0.00,weatherlink.com 1.10,2013-05-19 20:44:00,
2013-05-19 17:00:00,83.0,68.0,29.87,South,169,5.0,13.0,60,0.00,,,0.00,weatherlink.com 1.10,2013-05-19 21:00:00,
2013-05-19 17:15:00,83.1,69.0,29.86,South,186,2.0,8.0,62,0.00,,,0.00,weatherlink.com 1.10,2013-05-19 21:15:00,
2013-05-19 17:30:00,83.2,68.0,29.86,South,190,4.0,9.0,61,0.00,,,0.00,weatherlink.com 1.10,2013-05-19 21:30:00,
2013-05-19 17:45:00,83.1,67.0,29.86,South,174,0.0,9.0,59,0.00,,,0.00,weatherlink.com 1.10,2013-05-19 21:45:00,
2013-05-19 18:00:00,83.6,68.0,29.86,SW,229,9.0,9.0,60,0.00,,,0.00,weatherlink.com 1.10,2013-05-19 22:00:00,
2013-05-19 18:17:00,82.8,68.0,29.87,South,191,4.0,8.0,62,0.00,,,0.00,weatherlink.com 1.10,2013-05-19 22:17:00,
2013-05-19 18:32:00,81.9,68.0,29.86,SSW,193,3.0,7.0,63,0.00,,,0.00,weatherlink.com 1.10,2013-05-19 22:32:00,
2013-05-19 18:47:00,82.3,69.0,29.84,SSE,153,3.0,8.0,64,0.00,,,0.00,weatherlink.com 1.10,2013-05-19 22:47:00,
2013-05-19 19:02:00,82.7,68.0,29.85,SSE,167,3.0,8.0,61,0.00,,,0.00,weatherlink.com 1.10,2013-05-19 23:02:00,
2013-05-19 19:17:00,82.6,68.0,29.86,SSW,204,5.0,7.0,62,0.00,,,0.00,weatherlink.com 1.10,2013-05-19 23:17:00,
2013-05-19 19:32:00,82.0,68.0,29.85,SSE,152,3.0,7.0,62,0.00,,,0.00,weatherlink.com 1.10,2013-05-19 23:32:00,
2013-05-19 19:49:00,81.6,68.0,29.84,South,185,1.0,10.0,63,0.00,,,0.00,weatherlink.com 1.10,2013-05-19 23:49:00,
2013-05-19 20:03:00,81.2,68.0,29.84,South,189,4.0,8.0,64,0.00,,,0.00,weatherlink.com 1.10,2013-05-20 00:03:00,
2013-05-19 20:19:00,80.5,67.0,29.84,South,171,2.0,4.0,64,0.00,,,0.00,weatherlink.com 1.10,2013-05-20 00:19:00,
2013-05-19 20:34:00,79.5,67.0,29.84,South,171,0.0,4.0,65,0.00,,,0.00,weatherlink.com 1.10,2013-05-20 00:34:00,
2013-05-19 20:49:00,78.4,67.0,29.84,South,171,1.0,3.0,67,0.00,,,0.00,weatherlink.com 1.10,2013-05-20 00:49:00,
2013-05-19 21:04:00,77.4,66.0,29.84,SSE,167,1.0,4.0,69,0.00,,,0.00,weatherlink.com 1.10,2013-05-20 01:04:00,
2013-05-19 21:19:00,76.6,67.0,29.85,SSE,167,0.0,4.0,71,0.00,,,0.00,weatherlink.com 1.10,2013-05-20 01:19:00,
2013-05-19 21:34:00,75.9,66.0,29.86,SSE,167,0.0,2.0,72,0.00,,,0.00,weatherlink.com 1.10,2013-05-20 01:34:00,
2013-05-19 21:50:00,74.4,66.0,29.86,SSE,167,0.0,0.0,76,0.00,,,0.00,weatherlink.com 1.10,2013-05-20 01:50:00,
2013-05-19 22:05:00,73.1,66.0,29.87,SSE,167,2.0,3.0,78,0.00,,,0.00,weatherlink.com 1.10,2013-05-20 02:05:00,
2013-05-19 22:20:00,73.2,66.0,29.87,South,171,0.0,3.0,78,0.00,,,0.00,weatherlink.com 1.10,2013-05-20 02:20:00,
2013-05-19 22:37:00,73.1,67.0,29.88,South,171,1.0,3.0,80,0.00,,,0.00,weatherlink.com 1.10,2013-05-20 02:37:00,
2013-05-19 22:52:00,72.6,66.0,29.88,SSE,166,0.0,4.0,80,0.00,,,0.00,weatherlink.com 1.10,2013-05-20 02:52:00,
2013-05-19 23:07:00,72.7,67.0,29.88,SSE,167,0.0,3.0,81,0.00,,,0.00,weatherlink.com 1.10,2013-05-20 03:07:00,
2013-05-19 23:22:00,73.0,67.0,29.88,South,169,2.0,3.0,80,0.00,,,0.00,weatherlink.com 1.10,2013-05-20 03:22:00,
2013-05-19 23:37:00,72.7,67.0,29.88,SSE,165,3.0,4.0,81,0.00,,,0.00,weatherlink.com 1.10,2013-05-20 03:37:00,
2013-05-19 23:52:00,72.5,66.0,29.87,SSE,163,2.0,5.0,81,0.00,,,0.00,weatherlink.com 1.10,2013-05-20 03:52:00,